createdAt,value
2023-05-19T00:00:34.650Z,13.21
2023-05-19T00:03:03.395Z,13.21
2023-05-19T00:05:31.922Z,13.21
2023-05-19T00:08:01.862Z,13.17
2023-05-19T00:10:32.005Z,13.14
2023-05-19T00:13:00.927Z,13.06
2023-05-19T00:15:29.320Z,13.04
2023-05-19T00:17:57.295Z,13.02
2023-05-19T00:20:25.254Z,12.96
2023-05-19T00:22:53.232Z,13.01
2023-05-19T00:25:22.778Z,12.91
2023-05-19T00:27:50.806Z,12.46
2023-05-19T00:30:18.913Z,12.65
2023-05-19T00:32:46.923Z,12.66
2023-05-19T00:35:15.901Z,12.70
2023-05-19T00:37:43.886Z,12.68
2023-05-19T00:40:12.255Z,12.63
2023-05-19T00:42:42.473Z,12.58
2023-05-19T00:45:10.960Z,12.63
2023-05-19T00:47:39.014Z,12.60
2023-05-19T00:50:07.719Z,12.50
2023-05-19T00:52:35.876Z,12.55
2023-05-19T00:55:04.069Z,12.56
2023-05-19T00:57:32.073Z,12.56
2023-05-19T01:00:02.076Z,12.53
2023-05-19T01:02:30.828Z,12.29
2023-05-19T01:04:59.565Z,12.40
2023-05-19T01:07:27.535Z,12.43
2023-05-19T01:09:55.669Z,12.40
2023-05-19T01:12:23.766Z,12.37
2023-05-19T01:14:52.008Z,12.29
2023-05-19T01:17:28.425Z,12.29
2023-05-19T01:20:06.722Z,12.36
2023-05-19T01:22:55.020Z,12.25
2023-05-19T01:25:58.261Z,12.36
2023-05-19T01:28:59.724Z,12.28
2023-05-19T01:31:29.573Z,12.27
2023-05-19T01:33:59.310Z,12.25
2023-05-19T01:36:29.001Z,12.25
2023-05-19T01:38:59.367Z,12.21
2023-05-19T01:41:29.562Z,12.22
2023-05-19T01:43:58.901Z,12.19
2023-05-19T01:46:28.380Z,12.16
2023-05-19T01:48:57.256Z,12.13
2023-05-19T01:51:25.215Z,12.01
2023-05-19T01:53:53.202Z,12.08
2023-05-19T01:56:31.380Z,12.07
2023-05-19T01:59:12.262Z,11.74
2023-05-19T02:01:49.771Z,11.86
2023-05-19T02:04:26.184Z,11.95
2023-05-19T02:06:58.830Z,11.99
2023-05-19T02:09:36.057Z,12.00
2023-05-19T02:12:08.632Z,12.03
2023-05-19T02:14:40.493Z,12.01
2023-05-19T02:17:10.936Z,12.02
2023-05-19T02:19:40.314Z,11.96
2023-05-19T02:22:08.357Z,11.96
2023-05-19T02:24:36.781Z,11.93
2023-05-19T02:27:05.018Z,11.81
2023-05-19T02:29:33.002Z,11.85
2023-05-19T02:32:02.299Z,11.94
2023-05-19T02:34:31.653Z,11.97
2023-05-19T02:36:59.622Z,11.95
2023-05-19T02:39:29.263Z,11.89
2023-05-19T02:41:57.221Z,11.93
2023-05-19T02:44:25.236Z,11.93
2023-05-19T02:46:53.302Z,11.89
2023-05-19T02:49:21.339Z,11.81
2023-05-19T02:51:50.698Z,11.76
2023-05-19T02:54:18.686Z,11.72
2023-05-19T02:56:46.994Z,11.74
2023-05-19T02:59:14.975Z,11.65
2023-05-19T03:01:42.982Z,11.78
2023-05-19T03:04:11.326Z,11.65
2023-05-19T03:06:39.483Z,11.82
2023-05-19T03:09:08.904Z,11.67
2023-05-19T03:11:36.844Z,11.58
2023-05-19T03:14:04.805Z,11.85
2023-05-19T03:16:34.096Z,11.88
2023-05-19T03:19:02.226Z,11.91
2023-05-19T03:21:32.221Z,11.91
2023-05-19T03:24:01.555Z,11.93
2023-05-19T03:26:30.935Z,12.00
2023-05-19T03:28:58.985Z,12.03
2023-05-19T03:31:27.363Z,12.05
2023-05-19T03:33:55.311Z,12.08
2023-05-19T03:36:23.287Z,12.09
2023-05-19T03:38:51.260Z,12.19
2023-05-19T03:41:19.176Z,12.25
2023-05-19T03:43:48.483Z,12.36
2023-05-19T03:46:16.434Z,12.44
2023-05-19T03:48:44.476Z,12.48
2023-05-19T03:51:12.403Z,12.58
2023-05-19T03:53:41.268Z,12.69
2023-05-19T03:56:13.843Z,12.79
2023-05-19T03:58:43.569Z,12.91
2023-05-19T04:01:13.179Z,13.04
2023-05-19T04:03:41.617Z,13.12
2023-05-19T04:06:09.882Z,13.23
2023-05-19T04:08:37.835Z,13.41
2023-05-19T04:11:06.098Z,13.57
2023-05-19T04:13:34.445Z,13.78
2023-05-19T04:16:02.612Z,13.95
2023-05-19T04:18:31.960Z,14.13
2023-05-19T04:20:59.944Z,14.35
2023-05-19T04:23:27.887Z,14.53
2023-05-19T04:25:57.193Z,14.74
2023-05-19T04:28:25.172Z,14.95
2023-05-19T04:30:53.141Z,15.19
2023-05-19T04:33:21.554Z,15.36
2023-05-19T04:35:51.784Z,15.61
2023-05-19T04:38:20.304Z,15.82
2023-05-19T04:40:50.454Z,16.08
2023-05-19T04:43:19.364Z,16.36
2023-05-19T04:45:50.276Z,16.56
2023-05-19T04:48:18.243Z,16.81
2023-05-19T04:50:48.942Z,17.00
2023-05-19T04:53:18.341Z,17.21
2023-05-19T04:55:46.489Z,17.31
2023-05-19T04:58:14.465Z,17.40
2023-05-19T05:00:42.412Z,17.44
2023-05-19T05:03:10.479Z,17.60
2023-05-19T05:05:38.485Z,17.54
2023-05-19T05:08:07.212Z,17.73
2023-05-19T05:10:36.520Z,17.65
2023-05-19T05:13:04.967Z,17.75
2023-05-19T05:15:33.343Z,17.88
2023-05-19T05:18:01.756Z,17.96
2023-05-19T05:20:30.568Z,17.79
2023-05-19T05:22:59.125Z,17.86
2023-05-19T05:25:27.686Z,17.76
2023-05-19T05:27:58.987Z,18.00
2023-05-19T05:30:26.940Z,18.23
2023-05-19T05:32:55.003Z,18.48
2023-05-19T05:35:25.530Z,18.70
2023-05-19T05:37:53.485Z,18.28
2023-05-19T05:40:21.611Z,18.56
2023-05-19T05:42:49.649Z,18.65
2023-05-19T05:45:19.056Z,18.66
2023-05-19T05:47:47.568Z,18.41
2023-05-19T05:50:16.433Z,18.70
2023-05-19T05:52:47.998Z,18.70
2023-05-19T05:55:17.499Z,18.70
2023-05-19T05:57:45.711Z,18.83
2023-05-19T06:00:16.531Z,18.79
2023-05-19T06:02:47.646Z,19.17
2023-05-19T06:05:16.081Z,18.86
2023-05-19T06:07:44.494Z,19.24
2023-05-19T06:10:12.687Z,19.23
2023-05-19T06:12:42.639Z,19.54
2023-05-19T06:15:12.226Z,19.38
2023-05-19T06:17:40.176Z,19.50
2023-05-19T06:20:11.147Z,18.96
2023-05-19T06:22:39.113Z,19.57
2023-05-19T06:25:09.000Z,19.93
2023-05-19T06:27:37.104Z,19.81
2023-05-19T06:30:06.461Z,19.39
2023-05-19T06:32:34.481Z,19.80
2023-05-19T06:35:02.668Z,19.59
2023-05-19T06:37:31.997Z,19.58
2023-05-19T06:39:59.962Z,19.79
2023-05-19T06:42:27.983Z,19.91
2023-05-19T06:44:56.822Z,20.21
2023-05-19T06:47:24.834Z,19.67
2023-05-19T06:49:55.490Z,19.77
2023-05-19T06:52:23.846Z,19.94
2023-05-19T06:54:53.421Z,20.42
2023-05-19T06:57:21.691Z,20.59
2023-05-19T06:59:49.708Z,20.77
2023-05-19T07:02:17.711Z,20.77
2023-05-19T07:04:45.734Z,20.36
2023-05-19T07:07:13.673Z,20.71
2023-05-19T07:09:41.683Z,20.76
2023-05-19T07:12:11.010Z,20.91
2023-05-19T07:14:39.042Z,21.19
2023-05-19T07:17:06.989Z,21.48
2023-05-19T07:19:34.964Z,21.72
2023-05-19T07:22:02.931Z,22.13
2023-05-19T07:24:31.633Z,22.14
2023-05-19T07:26:59.617Z,21.44
2023-05-19T07:29:29.070Z,21.69
2023-05-19T07:31:58.214Z,21.82
2023-05-19T07:34:26.420Z,22.08
2023-05-19T07:36:54.387Z,22.29
2023-05-19T07:39:22.381Z,22.25
2023-05-19T07:41:54.291Z,22.35
2023-05-19T07:44:22.297Z,22.06
2023-05-19T07:46:51.688Z,21.96
2023-05-19T07:49:19.639Z,21.93
2023-05-19T07:51:47.592Z,22.17
2023-05-19T07:54:15.556Z,22.05
2023-05-19T07:56:43.548Z,22.52
2023-05-19T07:59:11.939Z,22.64
2023-05-19T08:01:39.921Z,22.52
2023-05-19T08:04:11.169Z,22.59
2023-05-19T08:06:42.813Z,23.09
2023-05-19T08:09:10.866Z,22.67
2023-05-19T08:11:39.043Z,22.31
2023-05-19T08:14:07.034Z,22.80
2023-05-19T08:16:35.001Z,22.52
2023-05-19T08:19:05.428Z,23.02
2023-05-19T08:21:35.606Z,23.52
2023-05-19T08:24:03.658Z,23.66
2023-05-19T08:26:31.587Z,23.10
2023-05-19T08:28:59.517Z,23.29
2023-05-19T08:31:27.561Z,23.33
2023-05-19T08:33:55.611Z,23.47
2023-05-19T08:36:23.631Z,23.80
2023-05-19T08:38:52.975Z,24.15
2023-05-19T08:41:21.646Z,23.98
2023-05-19T08:43:50.099Z,23.65
2023-05-19T08:46:18.894Z,23.84
2023-05-19T08:48:49.654Z,23.89
2023-05-19T08:51:25.553Z,23.65
2023-05-19T08:53:59.748Z,23.63
2023-05-19T08:56:28.360Z,23.68
2023-05-19T08:59:00.418Z,24.07
2023-05-19T09:01:30.415Z,23.76
2023-05-19T09:03:58.887Z,24.00
2023-05-19T09:06:27.849Z,24.28
2023-05-19T09:08:57.285Z,24.33
2023-05-19T09:11:25.286Z,24.36
2023-05-19T09:13:54.192Z,24.58
2023-05-19T09:16:22.450Z,24.23
2023-05-19T09:18:57.198Z,24.30
2023-05-19T09:21:31.292Z,24.45
2023-05-19T09:24:06.173Z,24.93
2023-05-19T09:26:38.624Z,24.80
2023-05-19T09:29:18.545Z,25.02
2023-05-19T09:31:51.628Z,25.00
2023-05-19T09:34:20.259Z,24.75
2023-05-19T09:36:49.591Z,24.30
2023-05-19T09:39:20.765Z,24.82
2023-05-19T09:41:52.087Z,24.92
2023-05-19T09:44:24.222Z,25.06
2023-05-19T09:46:53.232Z,25.15
2023-05-19T09:49:22.804Z,25.32
2023-05-19T09:51:52.375Z,25.44
2023-05-19T09:54:23.763Z,25.44
2023-05-19T09:56:59.062Z,25.25
2023-05-19T09:59:29.037Z,24.98
2023-05-19T10:02:00.779Z,24.90
2023-05-19T10:04:30.400Z,24.69
2023-05-19T10:07:00.506Z,25.13
2023-05-19T10:09:30.781Z,25.22
2023-05-19T10:12:00.319Z,25.54
2023-05-19T10:14:29.596Z,25.42
2023-05-19T10:16:58.894Z,25.07
2023-05-19T10:19:28.944Z,25.13
2023-05-19T10:21:57.544Z,25.30
2023-05-19T10:24:25.544Z,25.52
2023-05-19T10:26:59.644Z,25.88
2023-05-19T10:29:32.997Z,25.47
2023-05-19T10:32:04.349Z,25.13
2023-05-19T10:35:10.617Z,24.78
2023-05-19T10:37:46.095Z,24.74
2023-05-19T10:40:21.836Z,24.93
2023-05-19T10:43:04.151Z,24.97
2023-05-19T10:45:37.821Z,25.22
2023-05-19T10:48:06.084Z,25.33
2023-05-19T10:50:37.996Z,25.59
2023-05-19T10:53:06.007Z,25.29
2023-05-19T10:55:48.706Z,25.07
2023-05-19T10:58:38.114Z,25.15
2023-05-19T11:01:09.985Z,25.05
2023-05-19T11:03:49.199Z,25.15
2023-05-19T11:06:28.398Z,25.21
2023-05-19T11:09:00.710Z,25.19
2023-05-19T11:11:45.161Z,24.84
2023-05-19T11:14:17.207Z,24.92
2023-05-19T11:16:48.333Z,24.69
2023-05-19T11:19:21.360Z,24.59
2023-05-19T11:21:50.614Z,24.69
2023-05-19T11:24:44.771Z,24.78
2023-05-19T11:27:23.977Z,25.12
2023-05-19T11:29:53.977Z,24.97
2023-05-19T11:32:23.138Z,25.13
2023-05-19T11:34:51.272Z,25.55
2023-05-19T11:37:19.243Z,25.64
2023-05-19T11:39:48.029Z,25.42
2023-05-19T11:42:16.033Z,25.50
2023-05-19T11:44:46.226Z,25.27
2023-05-19T11:47:16.970Z,25.20
2023-05-19T11:49:46.035Z,25.30
2023-05-19T11:52:14.363Z,25.54
2023-05-19T11:54:43.052Z,25.61
2023-05-19T11:57:11.674Z,25.69
2023-05-19T11:59:43.928Z,25.76
2023-05-19T12:02:20.089Z,25.53
2023-05-19T12:04:49.281Z,25.74
2023-05-19T12:07:18.781Z,25.58
2023-05-19T12:09:47.462Z,26.07
2023-05-19T12:12:17.104Z,26.06
2023-05-19T12:14:45.677Z,25.94
2023-05-19T12:17:14.480Z,25.98
2023-05-19T12:19:44.962Z,25.80
2023-05-19T12:22:13.889Z,25.82
2023-05-19T12:24:43.121Z,25.80
2023-05-19T12:27:19.466Z,25.71
2023-05-19T12:29:51.417Z,25.80
2023-05-19T12:32:19.782Z,25.94
2023-05-19T12:34:49.302Z,26.06
2023-05-19T12:37:17.598Z,26.00
2023-05-19T12:39:45.658Z,26.01
2023-05-19T12:42:13.815Z,26.23
2023-05-19T12:44:46.864Z,26.35
2023-05-19T12:47:15.800Z,26.14
2023-05-19T12:49:57.026Z,26.01
2023-05-19T12:52:25.249Z,26.04
2023-05-19T12:55:00.527Z,25.99
2023-05-19T12:57:31.625Z,26.17
2023-05-19T13:00:05.139Z,26.12
2023-05-19T13:02:35.150Z,25.89
2023-05-19T13:05:04.966Z,25.61
2023-05-19T13:07:32.935Z,25.57
2023-05-19T13:10:00.884Z,25.46
2023-05-19T13:12:29.185Z,25.17
2023-05-19T13:14:57.156Z,25.15
2023-05-19T13:17:25.179Z,25.04
2023-05-19T13:19:53.420Z,24.69
2023-05-19T13:22:22.903Z,24.91
2023-05-19T13:24:51.134Z,25.20
2023-05-19T13:27:19.108Z,25.27
2023-05-19T13:29:47.098Z,25.16
2023-05-19T13:32:15.097Z,24.80
2023-05-19T13:34:43.104Z,24.93
2023-05-19T13:37:11.679Z,25.13
2023-05-19T13:39:41.307Z,25.21
2023-05-19T13:42:09.456Z,24.89
2023-05-19T13:44:37.419Z,23.91
2023-05-19T13:47:05.821Z,24.23
2023-05-19T13:49:33.828Z,24.30
2023-05-19T13:52:01.783Z,24.07
2023-05-19T13:54:29.801Z,23.93
2023-05-19T13:56:59.489Z,24.25
2023-05-19T13:59:28.440Z,24.31
2023-05-19T14:01:56.570Z,23.92
2023-05-19T14:04:24.918Z,23.64
2023-05-19T14:06:53.018Z,23.45
2023-05-19T14:09:21.005Z,22.92
2023-05-19T14:11:49.155Z,22.71
2023-05-19T14:14:18.662Z,22.68
2023-05-19T14:16:46.673Z,22.43
2023-05-19T14:19:14.735Z,22.09
2023-05-19T14:21:42.821Z,21.69
2023-05-19T14:24:10.815Z,21.92
2023-05-19T14:26:38.783Z,21.65
2023-05-19T14:29:06.815Z,21.50
2023-05-19T14:31:36.202Z,21.48
2023-05-19T14:34:05.226Z,21.43
2023-05-19T14:36:34.016Z,21.47
2023-05-19T14:39:02.053Z,21.18
2023-05-19T14:41:30.051Z,21.03
2023-05-19T14:43:58.008Z,21.04
2023-05-19T14:46:26.021Z,20.99
2023-05-19T14:48:55.453Z,20.74
2023-05-19T14:51:23.458Z,20.87
2023-05-19T14:53:51.595Z,20.88
2023-05-19T14:56:19.581Z,21.01
2023-05-19T14:58:47.534Z,21.12
2023-05-19T15:01:15.579Z,21.11
2023-05-19T15:03:43.678Z,21.25
2023-05-19T15:06:13.103Z,20.92
2023-05-19T15:21:21.479Z,21.59
2023-05-19T15:23:49.468Z,21.75
2023-05-19T15:26:17.540Z,21.72
2023-05-19T15:28:45.486Z,21.59
2023-05-19T15:31:13.525Z,21.23
2023-05-19T15:33:41.544Z,20.85
2023-05-19T15:36:11.270Z,20.72
2023-05-19T15:38:40.608Z,20.36
2023-05-19T15:41:09.503Z,20.27
2023-05-19T15:43:37.507Z,20.55
2023-05-19T15:46:06.040Z,20.42
2023-05-19T15:48:34.354Z,20.24
2023-05-19T15:51:02.385Z,20.15
2023-05-19T15:53:30.411Z,20.13
2023-05-19T15:55:59.784Z,20.04
2023-05-19T15:58:27.809Z,19.98
2023-05-19T16:00:55.917Z,19.96
2023-05-19T16:03:23.974Z,20.13
2023-05-19T16:05:51.962Z,20.00
2023-05-19T16:08:19.907Z,19.81
2023-05-19T16:10:47.879Z,19.87
2023-05-19T16:13:17.281Z,19.99
2023-05-19T16:15:45.262Z,19.82
2023-05-19T16:18:13.387Z,19.77
2023-05-19T16:20:41.474Z,19.47
2023-05-19T16:23:09.438Z,19.56
2023-05-19T16:25:37.388Z,19.68
2023-05-19T16:28:05.726Z,19.89
2023-05-19T16:30:35.386Z,19.83
2023-05-19T16:33:03.658Z,20.05
2023-05-19T16:35:32.252Z,19.95
2023-05-19T16:38:00.392Z,20.09
2023-05-19T16:40:30.835Z,19.93
2023-05-19T16:42:59.182Z,19.72
2023-05-19T16:45:27.424Z,19.66
2023-05-19T16:47:56.886Z,19.66
2023-05-19T16:50:24.929Z,19.42
2023-05-19T16:52:52.949Z,19.52
2023-05-19T16:55:20.962Z,19.38
2023-05-19T16:57:48.955Z,19.74
2023-05-19T17:00:17.475Z,19.92
2023-05-19T17:02:45.556Z,19.86
2023-05-19T17:05:16.865Z,19.73
2023-05-19T17:07:44.815Z,19.74
2023-05-19T17:10:13.946Z,19.59
2023-05-19T17:12:41.908Z,19.56
2023-05-19T17:15:11.036Z,19.67
2023-05-19T17:17:39.020Z,19.66
2023-05-19T17:20:08.421Z,19.78
2023-05-19T17:22:37.812Z,19.81
2023-05-19T17:25:07.148Z,19.57
2023-05-19T17:27:35.137Z,19.58
2023-05-19T17:30:03.519Z,19.51
2023-05-19T17:32:36.016Z,19.34
2023-05-19T17:35:06.671Z,19.40
2023-05-19T17:37:34.780Z,19.46
2023-05-19T17:40:04.460Z,19.46
2023-05-19T17:42:32.440Z,19.47
2023-05-19T17:45:00.419Z,19.46
2023-05-19T17:47:28.409Z,19.41
2023-05-19T17:49:56.490Z,19.48
2023-05-19T17:52:25.803Z,19.39
2023-05-19T17:54:54.310Z,19.33
2023-05-19T17:57:26.884Z,19.29
2023-05-19T17:59:55.393Z,19.18
2023-05-19T18:02:23.810Z,19.13
2023-05-19T18:04:52.358Z,19.12
2023-05-19T18:07:20.939Z,19.07
2023-05-19T18:09:52.075Z,19.06
2023-05-19T18:12:20.054Z,19.06
2023-05-19T18:14:50.222Z,18.92
2023-05-19T18:17:18.203Z,19.01
2023-05-19T18:19:46.362Z,18.92
2023-05-19T18:22:15.003Z,18.87
2023-05-19T18:24:42.981Z,19.15
2023-05-19T18:27:10.960Z,19.18
2023-05-19T18:29:39.357Z,19.23
2023-05-19T18:32:09.340Z,19.11
2023-05-19T18:34:37.349Z,19.20
2023-05-19T18:37:05.567Z,19.24
2023-05-19T18:39:33.537Z,19.16
2023-05-19T18:42:01.735Z,19.17
2023-05-19T18:44:29.782Z,19.16
2023-05-19T18:46:57.726Z,19.08
2023-05-19T18:49:27.088Z,18.96
2023-05-19T18:51:55.218Z,18.99
2023-05-19T18:54:23.165Z,18.92
2023-05-19T18:56:51.138Z,18.96
2023-05-19T18:59:19.145Z,18.93
2023-05-19T19:01:47.130Z,18.95
2023-05-19T19:04:16.812Z,18.89
2023-05-19T19:06:46.334Z,18.83
2023-05-19T19:09:14.504Z,18.81
2023-05-19T19:11:42.633Z,18.79
2023-05-19T19:14:10.951Z,18.79
2023-05-19T19:16:39.005Z,18.83
2023-05-19T19:19:07.266Z,18.79
2023-05-19T19:21:35.350Z,18.76
2023-05-19T19:24:05.254Z,18.69
2023-05-19T19:26:33.297Z,18.55
2023-05-19T19:29:01.277Z,18.38
2023-05-19T19:31:29.796Z,18.29
2023-05-19T19:34:00.920Z,18.21
2023-05-19T19:36:28.884Z,18.33
2023-05-19T19:38:56.888Z,18.22
2023-05-19T19:41:26.584Z,18.23
2023-05-19T19:43:54.536Z,18.30
2023-05-19T19:46:22.569Z,18.23
2023-05-19T19:48:51.186Z,18.27
2023-05-19T19:51:19.271Z,18.22
2023-05-19T19:53:47.234Z,18.17
2023-05-19T19:56:15.302Z,18.23
2023-05-19T19:58:44.684Z,18.18
2023-05-19T20:01:12.794Z,18.21
2023-05-19T20:03:41.002Z,18.20
2023-05-19T20:06:09.099Z,18.19
2023-05-19T20:08:37.060Z,18.15
2023-05-19T20:11:05.032Z,18.18
2023-05-19T20:13:33.158Z,18.04
2023-05-19T20:16:02.613Z,17.91
2023-05-19T20:18:30.844Z,18.01
2023-05-19T20:20:58.814Z,17.99
2023-05-19T20:23:26.782Z,17.79
2023-05-19T20:26:10.359Z,17.81
2023-05-19T20:28:39.531Z,17.79
2023-05-19T20:31:09.078Z,17.69
2023-05-19T20:33:37.051Z,17.70
2023-05-19T20:36:06.410Z,17.64
2023-05-19T20:38:34.375Z,17.50
2023-05-19T20:41:03.928Z,17.38
2023-05-19T20:43:33.055Z,17.45
2023-05-19T20:46:01.492Z,17.47
2023-05-19T20:48:30.936Z,17.42
2023-05-19T20:50:58.906Z,17.37
2023-05-19T20:53:26.869Z,17.31
2023-05-19T20:55:54.815Z,17.26
2023-05-19T20:58:22.817Z,17.25
2023-05-19T21:00:56.994Z,17.17
2023-05-19T21:03:26.882Z,17.05
2023-05-19T21:05:56.625Z,17.08
2023-05-19T21:08:25.138Z,17.12
2023-05-19T21:10:53.159Z,17.07
2023-05-19T21:13:21.303Z,17.02
2023-05-19T21:15:49.282Z,16.99
2023-05-19T21:18:17.226Z,16.93
2023-05-19T21:20:45.274Z,16.90
2023-05-19T21:23:14.582Z,16.84
2023-05-19T21:25:44.542Z,16.76
2023-05-19T21:28:13.272Z,16.73
2023-05-19T21:30:41.707Z,16.69
2023-05-19T21:33:09.778Z,16.69
2023-05-19T21:35:38.065Z,16.64
2023-05-19T21:38:15.568Z,16.61
2023-05-19T21:40:52.998Z,16.61
2023-05-19T21:43:21.918Z,16.57
2023-05-19T21:45:49.938Z,16.62
2023-05-19T21:48:18.020Z,16.59
2023-05-19T21:50:46.031Z,16.55
2023-05-19T21:53:14.004Z,16.51
2023-05-19T21:55:42.035Z,16.48
2023-05-19T21:58:11.376Z,16.42
2023-05-19T22:00:39.449Z,16.42
2023-05-19T22:03:07.864Z,16.43
2023-05-19T22:05:38.162Z,16.41
2023-05-19T22:08:06.366Z,16.35
2023-05-19T22:10:34.988Z,16.29
2023-05-19T22:13:03.216Z,16.35
2023-05-19T22:15:32.550Z,16.28
2023-05-19T22:18:00.620Z,16.24
2023-05-19T22:20:28.773Z,16.03
2023-05-19T22:22:57.454Z,16.04
2023-05-19T22:25:25.413Z,16.02
2023-05-19T22:27:53.349Z,16.03
2023-05-19T22:30:21.800Z,15.91
2023-05-19T22:32:51.393Z,15.80
2023-05-19T22:35:19.975Z,15.84
2023-05-19T22:37:47.935Z,15.94
2023-05-19T22:40:15.949Z,15.95
2023-05-19T22:42:43.888Z,15.74
2023-05-19T22:45:12.388Z,15.64
2023-05-19T22:47:40.624Z,15.74
2023-05-19T22:50:12.251Z,15.83
2023-05-19T22:52:40.237Z,15.87
2023-05-19T22:55:09.165Z,15.88
2023-05-19T22:57:37.127Z,15.87
2023-05-19T23:00:05.865Z,15.86
2023-05-19T23:02:33.898Z,15.83
2023-05-19T23:05:02.093Z,15.79
2023-05-19T23:07:31.496Z,15.75
2023-05-19T23:09:59.506Z,15.80
2023-05-19T23:12:27.526Z,15.83
2023-05-19T23:14:55.467Z,15.78
2023-05-19T23:17:23.410Z,15.71
2023-05-19T23:19:51.609Z,15.76
2023-05-19T23:22:19.553Z,15.76
2023-05-19T23:24:48.959Z,15.75
2023-05-19T23:27:16.918Z,15.77
2023-05-19T23:29:48.515Z,15.76
2023-05-19T23:32:16.719Z,15.77
2023-05-19T23:34:44.649Z,15.72
2023-05-19T23:37:12.688Z,15.67
2023-05-19T23:39:40.949Z,15.68
2023-05-19T23:42:10.305Z,15.68
2023-05-19T23:44:38.338Z,15.66
2023-05-19T23:47:06.967Z,15.54
2023-05-19T23:49:35.154Z,15.57
2023-05-19T23:52:03.094Z,15.55
2023-05-19T23:54:31.396Z,15.50
2023-05-19T23:56:59.539Z,15.41
2023-05-19T23:59:28.867Z,15.31
